Time;durP1;ratioP1;P1;durP2;ratioP2;P2;SDS_P1;SDS_P2;PMS_P1;PMS_P2;Temp;Humidity;BMP_temperature;BMP_pressure;BME280_temperature;BME280_humidity;BME280_pressure;Samples;Min_cycle;Max_cycle;Signal;HPM_P1;HPM_P2
2022/04/29 00:01:03;;;;;;;3.47;2.33;;;;;;;11.18;100.00;101648.48;1729112;83;21015;-77
2022/04/29 00:03:31;;;;;;;3.10;1.95;;;;;;;11.23;100.00;101659.94;1728694;82;21701;-77
2022/04/29 00:06:00;;;;;;;3.95;2.50;;;;;;;11.28;100.00;101654.00;1728783;83;21028;-79
2022/04/29 00:08:30;;;;;;;3.67;2.37;;;;;;;11.30;100.00;101652.97;1729139;82;21114;-77
2022/04/29 00:10:59;;;;;;;3.42;2.50;;;;;;;11.33;100.00;101651.48;1729235;83;22117;-79
2022/04/29 00:13:28;;;;;;;3.30;2.75;;;;;;;11.34;100.00;101649.22;1727302;82;21043;-83
2022/04/29 00:15:57;;;;;;;4.75;2.10;;;;;;;11.39;100.00;101652.03;1729002;83;21055;-78
2022/04/29 00:18:24;;;;;;;4.22;2.72;;;;;;;11.41;100.00;101647.08;1728834;83;21074;-77
2022/04/29 00:20:53;;;;;;;4.00;2.42;;;;;;;11.43;99.77;101640.45;1729121;83;21059;-77
2022/04/29 00:23:21;;;;;;;2.40;2.02;;;;;;;11.43;99.38;101647.83;1728856;83;21042;-78
2022/04/29 00:25:50;;;;;;;3.67;2.58;;;;;;;11.43;96.88;101654.80;1729172;82;21552;-77
2022/04/29 00:28:17;;;;;;;3.40;2.67;;;;;;;11.42;95.65;101655.73;1729102;81;21011;-77
2022/04/29 00:30:45;;;;;;;4.40;2.70;;;;;;;11.41;96.27;101650.17;1729200;81;21811;-77
2022/04/29 00:33:12;;;;;;;3.92;2.83;;;;;;;11.39;95.38;101655.45;1728336;82;21055;-77
2022/04/29 00:35:41;;;;;;;3.83;2.77;;;;;;;11.39;94.80;101657.24;1729154;81;21552;-83
2022/04/29 00:38:15;;;;;;;5.10;2.80;;;;;;;11.35;95.80;101650.91;1729113;81;21081;-78
2022/04/29 00:40:40;;;;;;;6.28;2.90;;;;;;;11.32;92.39;101651.11;1729571;82;21027;-78
2022/04/29 00:43:09;;;;;;;5.97;2.87;;;;;;;11.31;91.88;101655.95;1729118;81;21138;-77
2022/04/29 00:45:36;;;;;;;4.30;2.72;;;;;;;11.31;92.76;101654.64;1728991;81;21008;-77
2022/04/29 00:48:03;;;;;;;4.50;2.85;;;;;;;11.30;94.09;101652.97;1728813;81;21031;-78
2022/04/29 00:50:31;;;;;;;4.40;2.60;;;;;;;11.30;95.62;101650.36;1728974;81;22095;-76
2022/04/29 00:52:59;;;;;;;3.27;2.70;;;;;;;11.29;95.93;101646.55;1729031;82;22128;-77
2022/04/29 00:55:31;;;;;;;4.25;3.00;;;;;;;11.28;94.28;101645.70;1729082;81;21030;-79
2022/04/29 00:58:13;;;;;;;7.75;3.15;;;;;;;11.28;92.82;101646.17;1706174;83;21117;-78
2022/04/29 01:00:40;;;;;;;3.47;2.55;;;;;;;11.26;93.85;101644.95;1729260;81;21101;-77
2022/04/29 01:03:13;;;;;;;5.35;2.85;;;;;;;11.25;93.64;101652.42;1706245;82;21056;-76
2022/04/29 01:05:43;;;;;;;3.77;2.90;;;;;;;11.24;93.73;101645.53;1658615;85;21029;-77
2022/04/29 01:08:12;;;;;;;3.52;2.85;;;;;;;11.24;93.87;101644.23;1684446;85;20966;-79
2022/04/29 01:10:40;;;;;;;4.90;2.67;;;;;;;11.23;93.76;101641.24;1684730;85;21022;-78
2022/04/29 01:13:09;;;;;;;4.28;2.90;;;;;;;11.21;94.20;101643.09;1684452;83;21002;-77
2022/04/29 01:15:38;;;;;;;5.40;3.33;;;;;;;11.20;94.76;101648.80;1684688;85;21080;-79
2022/04/29 01:18:11;;;;;;;6.20;3.27;;;;;;;11.18;96.62;101649.80;1684754;85;21108;-76
2022/04/29 01:20:39;;;;;;;3.72;3.30;;;;;;;11.16;96.26;101644.68;1684513;85;21405;-76
2022/04/29 01:23:09;;;;;;;4.75;3.20;;;;;;;11.14;97.21;101647.84;1684500;85;21566;-84
2022/04/29 01:25:40;;;;;;;3.10;2.80;;;;;;;11.11;96.37;101647.19;1684725;83;21562;-79
2022/04/29 01:28:08;;;;;;;4.25;3.22;;;;;;;11.10;94.70;101645.52;1684167;83;21633;-77
2022/04/29 01:30:41;;;;;;;6.12;3.55;;;;;;;11.08;95.91;101648.22;1684417;85;21006;-76
2022/04/29 01:33:12;;;;;;;4.80;3.27;;;;;;;11.04;96.82;101646.75;1684193;85;21248;-77
2022/04/29 01:35:40;;;;;;;4.05;3.20;;;;;;;11.00;96.79;101644.80;1685135;85;26999;-77
2022/04/29 01:38:07;;;;;;;5.05;3.37;;;;;;;10.98;97.00;101645.34;1684139;85;21049;-77
2022/04/29 01:40:35;;;;;;;3.98;3.12;;;;;;;10.97;94.83;101651.96;1684772;85;21093;-78
2022/04/29 01:43:04;;;;;;;5.67;3.17;;;;;;;10.96;92.36;101648.98;1685744;84;21089;-83
2022/04/29 01:45:35;;;;;;;4.35;3.00;;;;;;;10.95;89.76;101653.81;1684505;83;21218;-78
2022/04/29 01:48:04;;;;;;;4.47;3.00;;;;;;;10.94;89.72;101649.53;1684210;85;20998;-80
2022/04/29 01:50:37;;;;;;;4.70;3.00;;;;;;;10.95;88.59;101653.81;1682281;83;21098;-77
2022/04/29 01:53:06;;;;;;;5.65;3.08;;;;;;;10.94;88.50;101647.75;1684242;85;21081;-78
2022/04/29 01:55:33;;;;;;;4.72;3.00;;;;;;;10.95;87.68;101649.91;1684512;83;21327;-76
2022/04/29 01:58:00;;;;;;;4.70;2.90;;;;;;;10.95;88.00;101646.82;1684007;85;22068;-77
2022/04/29 02:00:28;;;;;;;4.50;3.00;;;;;;;10.95;87.58;101644.69;1684385;83;21018;-78
2022/04/29 02:02:56;;;;;;;3.12;2.70;;;;;;;10.94;86.40;101640.41;1684681;83;21105;-76
2022/04/29 02:05:25;;;;;;;3.58;2.70;;;;;;;10.94;86.78;101646.92;1687086;84;21518;-78
2022/04/29 02:07:57;;;;;;;4.90;2.60;;;;;;;10.94;86.19;101645.62;1690765;84;21069;-85
2022/04/29 02:10:24;;;;;;;3.58;2.52;;;;;;;10.92;82.80;101641.81;1692331;83;21089;-77
2022/04/29 02:12:52;;;;;;;5.35;2.80;;;;;;;10.94;83.18;101642.53;1690240;84;21014;-77
2022/04/29 02:15:25;;;;;;;3.60;2.90;;;;;;;10.94;82.11;101651.66;1691866;84;21109;-76
2022/04/29 02:17:53;;;;;;;4.12;2.50;;;;;;;10.94;82.96;101655.56;1690321;84;21034;-76
2022/04/29 02:20:24;;;;;;;3.50;3.03;;;;;;;10.94;83.60;101656.87;1692075;84;20987;-76
2022/04/29 02:22:53;;;;;;;4.62;3.02;;;;;;;10.95;82.83;101654.64;1690364;84;21893;-78
2022/04/29 02:25:21;;;;;;;3.98;3.02;;;;;;;10.96;83.19;101662.84;1690362;84;21009;-77
2022/04/29 02:27:48;;;;;;;7.22;3.55;;;;;;;10.98;80.24;101665.34;1690773;84;21522;-77
2022/04/29 02:30:19;;;;;;;6.12;3.40;;;;;;;10.97;81.34;101663.21;1690220;84;21172;-77
2022/04/29 02:32:46;;;;;;;3.98;3.30;;;;;;;10.99;81.01;101665.27;1690053;84;21073;-80
2022/04/29 02:35:16;;;;;;;5.05;3.02;;;;;;;11.00;81.06;101664.34;1690660;84;22243;-78
2022/04/29 02:37:45;;;;;;;3.52;2.77;;;;;;;11.00;81.08;101664.34;1690527;84;21790;-78
2022/04/29 02:40:12;;;;;;;6.00;2.92;;;;;;;11.00;81.17;101668.25;1677837;84;21002;-78
2022/04/29 02:42:41;;;;;;;5.47;2.90;;;;;;;11.00;80.56;101672.16;1690560;84;21003;-77
2022/04/29 02:45:11;;;;;;;4.78;3.08;;;;;;;11.00;80.86;101676.52;1690570;84;21499;-78
2022/04/29 02:47:46;;;;;;;7.47;2.90;;;;;;;10.99;80.59;101673.53;1690285;84;21950;-77
2022/04/29 02:50:14;;;;;;;5.58;2.98;;;;;;;10.98;80.10;101672.70;1690315;84;21038;-77
2022/04/29 02:52:57;;;;;;;4.08;2.52;;;;;;;10.97;77.81;101671.51;1690810;84;21014;-76
2022/04/29 02:55:26;;;;;;;5.05;3.20;;;;;;;10.96;78.46;101673.26;1689992;84;21129;-78
2022/04/29 02:57:55;;;;;;;7.03;3.02;;;;;;;10.95;77.19;101668.97;1692202;83;21077;-77
2022/04/29 03:00:24;;;;;;;3.05;2.52;;;;;;;10.94;77.90;101672.98;1696411;82;21039;-82
2022/04/29 03:02:51;;;;;;;3.83;2.72;;;;;;;10.92;78.07;101674.38;1682715;84;21107;-84
2022/04/29 03:05:23;;;;;;;3.42;2.70;;;;;;;10.92;78.78;101684.81;1697722;84;21029;-80
2022/04/29 03:07:51;;;;;;;5.12;2.92;;;;;;;10.91;78.84;101681.83;1684336;85;21018;-78
2022/04/29 03:10:19;;;;;;;4.60;3.05;;;;;;;10.91;80.97;101693.55;1683651;84;21566;-77
2022/04/29 03:12:47;;;;;;;7.20;2.90;;;;;;;10.91;83.28;101692.70;1683559;85;22297;-76
2022/04/29 03:15:18;;;;;;;4.70;2.87;;;;;;;10.89;82.89;101697.56;1707688;83;21047;-77
2022/04/29 03:20:43;;;;;;;3.62;2.52;;;;;;;10.88;84.87;101705.00;1697578;84;21642;-77
2022/04/29 03:23:13;;;;;;;3.15;2.77;;;;;;;10.91;85.66;101706.58;1674121;84;21921;-77
2022/04/29 03:25:45;;;;;;;3.00;2.42;;;;;;;10.90;87.44;101708.81;1691151;84;21090;-76
2022/04/29 03:28:15;;;;;;;3.98;2.92;;;;;;;10.91;88.94;101709.19;1695201;83;21528;-77
2022/04/29 03:30:43;;;;;;;6.37;2.85;;;;;;;10.91;89.90;101710.49;1695141;83;21043;-76
2022/04/29 03:33:14;;;;;;;5.17;2.47;;;;;;;10.91;90.27;101717.45;1695698;83;21007;-77
2022/04/29 03:35:47;;;;;;;7.58;2.80;;;;;;;10.92;90.23;101723.04;1695451;83;21056;-76
2022/04/29 03:38:19;;;;;;;4.78;2.50;;;;;;;10.90;87.68;101717.93;1694546;84;21104;-76
2022/04/29 03:40:48;;;;;;;4.00;2.40;;;;;;;10.93;90.45;101721.67;1695618;83;21569;-77
2022/04/29 03:43:15;;;;;;;4.00;2.45;;;;;;;10.94;89.55;101714.20;1673447;84;21046;-77
2022/04/29 03:45:45;;;;;;;4.53;2.58;;;;;;;10.96;88.52;101716.73;1695657;83;21091;-77
2022/04/29 03:48:14;;;;;;;5.50;2.33;;;;;;;10.97;85.95;101719.24;1695780;84;21070;-76
2022/04/29 03:50:43;;;;;;;4.58;2.62;;;;;;;11.00;85.45;101725.59;1691963;84;21268;-76
2022/04/29 03:53:14;;;;;;;2.58;2.20;;;;;;;11.04;84.71;101723.64;1691482;84;21056;-77
2022/04/29 03:55:43;;;;;;;5.28;2.45;;;;;;;11.06;84.04;101726.97;1691816;84;21051;-83
2022/04/29 03:58:11;;;;;;;6.55;3.70;;;;;;;11.09;81.63;101722.06;1695474;84;21568;-77
2022/04/29 04:00:45;;;;;;;7.75;5.30;;;;;;;11.12;82.77;101721.86;1692901;84;21496;-77
2022/04/29 04:03:13;;;;;;;5.53;3.60;;;;;;;11.14;83.61;101719.53;1672929;84;21567;-77
2022/04/29 04:06:49;;;;;;;6.40;3.90;;;;;;;11.19;84.48;101721.41;1695788;83;21039;-77
2022/04/29 04:08:12;;;;;;;4.70;3.45;;;;;;;11.24;85.80;101721.14;1692898;83;21020;-76
2022/04/29 04:10:43;;;;;;;10.50;5.58;;;;;;;11.29;83.85;101724.77;1692059;84;20980;-77
2022/04/29 04:13:13;;;;;;;13.75;6.37;;;;;;;11.32;83.60;101721.52;1696306;83;21024;-78
2022/04/29 04:15:54;;;;;;;11.88;6.15;;;;;;;11.37;84.01;101722.54;1692784;83;21249;-77
2022/04/29 04:18:23;;;;;;;11.75;7.00;;;;;;;11.42;82.04;101726.14;1694916;83;21520;-78
2022/04/29 04:20:51;;;;;;;14.13;7.60;;;;;;;11.44;82.38;101724.28;1695204;83;21059;-77
2022/04/29 04:23:19;;;;;;;12.53;5.92;;;;;;;11.48;83.15;101729.70;1695505;84;21611;-78
2022/04/29 04:25:48;;;;;;;7.08;4.17;;;;;;;11.52;83.35;101732.48;1694365;83;21102;-84
2022/04/29 04:28:21;;;;;;;4.47;3.05;;;;;;;11.56;82.83;101733.12;1692448;84;21918;-79
2022/04/29 04:30:54;;;;;;;5.87;3.00;;;;;;;11.60;84.46;101734.16;1687515;83;21102;-78
2022/04/29 04:33:23;;;;;;;4.15;2.58;;;;;;;11.65;83.74;101734.73;1686422;84;21011;-78
2022/04/29 04:35:54;;;;;;;5.10;2.90;;;;;;;11.71;82.16;101737.88;1672736;84;21040;-77
2022/04/29 04:38:22;;;;;;;3.10;2.30;;;;;;;11.75;81.14;101736.73;1686327;84;21042;-77
2022/04/29 04:40:53;;;;;;;6.62;2.35;;;;;;;11.79;81.04;101738.23;1686468;83;21416;-84
2022/04/29 04:43:22;;;;;;;5.12;2.92;;;;;;;11.83;83.20;101741.02;1684551;85;20986;-78
2022/04/29 04:45:51;;;;;;;5.10;2.90;;;;;;;11.89;81.21;101741.10;1684613;85;21089;-77
2022/04/29 04:48:42;;;;;;;3.92;2.27;;;;;;;11.92;80.78;101743.05;1684092;85;21069;-79
2022/04/29 04:51:29;;;;;;;4.22;2.60;;;;;;;11.96;79.85;101740.63;1684837;85;21014;-76
2022/04/29 04:53:58;;;;;;;4.30;2.27;;;;;;;11.99;77.08;101744.37;1684599;83;21324;-77
2022/04/29 04:56:28;;;;;;;3.60;2.70;;;;;;;12.02;77.82;101751.64;1684324;83;21604;-76
2022/04/29 04:58:57;;;;;;;4.25;2.40;;;;;;;12.04;80.30;101755.83;1676412;82;21020;-83
2022/04/29 05:01:24;;;;;;;5.85;2.22;;;;;;;12.05;80.81;101756.69;1675244;85;21009;-77
2022/04/29 05:04:11;;;;;;;5.45;2.65;;;;;;;12.05;81.91;101754.07;1699510;82;21547;-79
2022/04/29 05:06:40;;;;;;;4.17;2.25;;;;;;;12.04;78.01;101752.39;1604260;84;21194;-78
2022/04/29 05:09:09;;;;;;;2.95;2.30;;;;;;;12.03;75.48;101750.23;1666305;84;21126;-76
2022/04/29 05:11:39;;;;;;;4.45;2.60;;;;;;;12.05;72.51;101742.33;1721883;82;21977;-77
2022/04/29 05:14:09;;;;;;;6.95;2.40;;;;;;;12.07;70.17;101742.59;1677354;84;21817;-77
2022/04/29 05:16:40;;;;;;;4.90;2.47;;;;;;;12.06;67.66;101751.83;1697353;82;21054;-79
2022/04/29 05:19:13;;;;;;;9.63;2.30;;;;;;;12.06;67.30;101749.23;1700506;82;22138;-78
2022/04/29 05:21:41;;;;;;;5.70;2.33;;;;;;;12.07;66.28;101760.01;1703613;83;21548;-77
2022/04/29 05:24:11;;;;;;;5.12;2.50;;;;;;;12.09;68.03;101767.28;1692110;84;21047;-83
2022/04/29 05:26:43;;;;;;;4.15;2.05;;;;;;;12.12;68.36;101771.02;1702507;84;21035;-81
2022/04/29 05:29:26;;;;;;;6.25;2.40;;;;;;;12.17;70.61;101778.08;1650239;84;21048;-77
2022/04/29 05:32:16;;;;;;;3.87;2.33;;;;;;;12.21;68.82;101779.58;1638013;87;21146;-78
2022/04/29 05:35:04;;;;;;;8.28;3.00;;;;;;;12.26;68.72;101781.42;1638409;86;21181;-81
2022/04/29 05:37:42;;;;;;;6.60;2.52;;;;;;;12.29;65.91;101781.23;1677001;84;21097;-80
2022/04/29 05:42:59;;;;;;;3.52;2.60;;;;;;;12.38;67.18;101788.11;1704334;84;21048;-79
2022/04/29 05:45:27;;;;;;;5.28;2.77;;;;;;;12.42;66.72;101784.35;1704171;84;21904;-79
2022/04/29 05:47:56;;;;;;;4.45;3.08;;;;;;;12.48;67.11;101787.05;1704534;84;21068;-79
2022/04/29 05:50:26;;;;;;;4.30;2.30;;;;;;;12.54;65.12;101783.55;1706949;82;21034;-77
2022/04/29 05:52:55;;;;;;;5.42;2.60;;;;;;;12.60;65.56;101784.48;1690758;82;21121;-78
2022/04/29 05:55:24;;;;;;;3.10;2.22;;;;;;;12.65;65.65;101776.34;1721384;82;21071;-83
2022/04/29 05:57:53;;;;;;;6.40;2.95;;;;;;;12.72;65.66;101780.22;1675886;84;21276;-79
2022/04/29 06:00:21;;;;;;;3.47;2.65;;;;;;;12.79;65.58;101778.02;1741745;82;21125;-79
2022/04/29 06:02:52;;;;;;;4.92;2.62;;;;;;;12.87;64.43;101780.97;1740880;82;21559;-79
2022/04/29 06:05:24;;;;;;;4.28;2.10;;;;;;;12.96;66.43;101781.30;1681601;84;21541;-79
2022/04/29 06:07:52;;;;;;;7.62;2.75;;;;;;;13.06;61.72;101777.95;1684646;82;21577;-80
2022/04/29 06:10:23;;;;;;;5.83;2.58;;;;;;;13.15;63.31;101779.13;1711308;83;20979;-78
2022/04/29 06:12:53;;;;;;;4.83;2.72;;;;;;;13.26;60.99;101780.53;1712093;83;21503;-79
2022/04/29 06:15:29;;;;;;;6.37;2.60;;;;;;;13.36;59.82;101782.52;1712775;83;21652;-77
2022/04/29 06:18:08;;;;;;;5.45;2.50;;;;;;;13.49;66.49;101785.17;1698721;83;21053;-78
2022/04/29 06:20:43;;;;;;;5.47;2.35;;;;;;;13.64;63.14;101781.97;1645116;84;21007;-79
2022/04/29 06:23:13;;;;;;;3.08;2.50;;;;;;;13.78;62.77;101789.69;1686744;83;21192;-79
2022/04/29 06:25:41;;;;;;;3.98;2.60;;;;;;;13.86;59.50;101790.47;1692789;82;21548;-78
2022/04/29 06:28:14;;;;;;;4.80;2.70;;;;;;;13.91;58.20;101795.36;1675592;85;21029;-80
2022/04/29 06:30:42;;;;;;;3.87;2.60;;;;;;;13.97;61.01;101792.33;1673022;85;21017;-77
2022/04/29 06:33:30;;;;;;;5.28;2.60;;;;;;;14.02;58.86;101795.45;1676007;85;21521;-78
2022/04/29 06:36:01;;;;;;;4.28;2.55;;;;;;;14.04;59.45;101791.77;1683973;82;21153;-78
2022/04/29 06:38:32;;;;;;;4.20;2.22;;;;;;;14.07;56.55;101799.87;1690205;84;21824;-78
2022/04/29 06:41:05;;;;;;;5.17;2.55;;;;;;;14.07;56.22;101806.42;1654526;84;21046;-79
2022/04/29 06:43:37;;;;;;;5.45;2.92;;;;;;;14.04;56.95;101809.27;1672622;85;21023;-78
2022/04/29 06:46:24;;;;;;;2.67;2.22;;;;;;;14.03;55.33;101807.59;1653029;85;20988;-78
2022/04/29 06:49:14;;;;;;;5.60;2.52;;;;;;;14.02;54.41;101803.30;1728783;82;21668;-78
2022/04/29 06:52:02;;;;;;;5.08;2.30;;;;;;;14.05;53.45;101808.34;1622428;86;21088;-79
2022/04/29 06:54:33;;;;;;;4.25;2.22;;;;;;;14.04;55.10;101804.04;1679143;83;21034;-78
2022/04/29 06:57:06;;;;;;;3.85;2.37;;;;;;;14.06;57.42;101804.74;1701607;82;21127;-78
2022/04/29 06:59:33;;;;;;;6.50;3.02;;;;;;;14.07;55.51;101801.18;1704185;83;21818;-77
2022/04/29 07:02:02;;;;;;;4.20;2.77;;;;;;;14.11;55.22;101800.48;1703747;84;21112;-78
2022/04/29 07:04:32;;;;;;;2.72;2.10;;;;;;;14.14;53.45;101793.25;1703978;83;21600;-78
2022/04/29 07:11:25;;;;;;;3.55;2.35;;;;;;;14.28;56.35;101797.98;1661796;83;21099;-86
2022/04/29 07:13:58;;;;;;;3.20;2.27;;;;;;;14.33;57.24;101791.93;1647353;87;21129;-78
2022/04/29 07:16:27;;;;;;;5.60;2.45;;;;;;;14.36;56.22;101794.34;1627514;87;21271;-77
2022/04/29 07:19:07;;;;;;;3.58;2.30;;;;;;;14.36;55.44;101789.92;1648051;87;21066;-77
2022/04/29 07:21:42;;;;;;;5.60;2.55;;;;;;;14.38;56.24;101791.11;1654950;85;21161;-78
2022/04/29 07:24:12;;;;;;;3.00;2.20;;;;;;;14.40;54.78;101790.53;1660175;86;21004;-77
2022/04/29 07:26:40;;;;;;;4.22;2.20;;;;;;;14.39;55.71;101788.86;1648946;85;21078;-78
2022/04/29 07:29:09;;;;;;;4.05;2.65;;;;;;;14.42;55.32;101780.78;1648224;85;21023;-78
2022/04/29 07:31:40;;;;;;;4.77;3.10;;;;;;;14.45;55.90;101787.13;1650350;85;21874;-85
2022/04/29 07:34:16;;;;;;;6.80;3.92;;;;;;;14.48;55.67;101780.33;1637811;85;21573;-78
2022/04/29 07:42:32;;;;;;;8.80;6.30;;;;;;;14.67;53.06;101780.33;1698096;84;22262;-83
2022/04/29 07:45:01;;;;;;;6.47;5.05;;;;;;;14.69;54.38;101778.44;1684267;85;21534;-76
2022/04/29 07:47:30;;;;;;;4.20;3.27;;;;;;;14.72;53.55;101786.05;1680976;83;21125;-77
2022/04/29 07:49:59;;;;;;;5.78;4.28;;;;;;;14.73;53.45;101786.41;1684349;83;21105;-79
2022/04/29 07:52:29;;;;;;;7.12;4.20;;;;;;;14.72;52.63;101786.54;1678242;84;21491;-77
2022/04/29 07:54:59;;;;;;;5.70;4.33;;;;;;;14.70;52.55;101784.05;1700520;82;21165;-78
2022/04/29 07:57:29;;;;;;;9.18;5.78;;;;;;;14.71;54.70;101780.44;1688789;83;20939;-77
2022/04/29 07:59:59;;;;;;;8.00;4.60;;;;;;;14.74;52.88;101780.72;1688208;83;22201;-77
2022/04/29 08:02:44;;;;;;;3.27;2.50;;;;;;;14.76;54.16;101778.33;1682427;83;21015;-78
2022/04/29 08:05:15;;;;;;;4.42;2.40;;;;;;;14.81;51.82;101779.30;1676421;83;21037;-78
2022/04/29 08:07:47;;;;;;;;;;;;;;;14.81;49.35;101774.06;1700136;82;21095;-78
2022/04/29 08:10:15;;;;;;;3.40;2.30;;;;;;;14.85;51.54;101775.97;1675804;84;20172;-77
2022/04/29 08:12:52;;;;;;;3.77;2.67;;;;;;;14.87;51.03;101774.91;1683269;83;21055;-79
2022/04/29 08:15:26;;;;;;;2.98;2.40;;;;;;;14.88;49.63;101771.34;1712832;82;21023;-82
2022/04/29 08:17:57;;;;;;;5.33;2.40;;;;;;;14.87;49.00;101776.67;1701672;83;21034;-78
2022/04/29 08:20:26;;;;;;;6.83;2.67;;;;;;;14.88;48.43;101777.04;1703299;82;21146;-79
2022/04/29 08:22:54;;;;;;;3.67;2.87;;;;;;;14.88;48.43;101774.41;1705953;83;21027;-77
2022/04/29 08:25:23;;;;;;;4.15;2.95;;;;;;;14.87;51.73;101780.61;1687485;82;21550;-79
2022/04/29 08:27:53;;;;;;;5.60;2.67;;;;;;;14.86;51.98;101778.96;1689549;84;21032;-77
2022/04/29 08:30:23;;;;;;;;;;;;;;;14.81;53.42;101776.19;1696453;82;21067;-77
2022/04/29 08:32:52;;;;;;;5.10;2.60;;;;;;;14.74;52.40;101774.98;1705519;83;21284;-77
2022/04/29 08:35:31;;;;;;;9.40;2.90;;;;;;;14.67;52.50;101769.84;1698985;83;21106;-77
2022/04/29 08:38:01;;;;;;;4.03;3.05;;;;;;;14.61;51.50;101770.27;1680256;84;32920;-78
2022/04/29 08:40:34;;;;;;;6.42;4.00;;;;;;;14.56;52.10;101771.06;1697457;83;21082;-77
2022/04/29 08:43:04;;;;;;;9.50;4.90;;;;;;;14.53;52.20;101773.44;1679930;83;21429;-83
2022/04/29 08:45:33;;;;;;;5.33;3.55;;;;;;;14.49;51.69;101766.28;1713772;82;21158;-78
2022/04/29 08:48:05;;;;;;;5.58;3.50;;;;;;;14.45;51.67;101764.00;1696295;83;21051;-79
2022/04/29 08:50:37;;;;;;;3.47;2.90;;;;;;;14.43;51.04;101771.12;1704002;83;21078;-78
2022/04/29 08:53:06;;;;;;;9.28;2.52;;;;;;;14.39;50.39;101763.14;1680584;83;21340;-80
2022/04/29 08:58:38;;;;;;;7.33;3.00;;;;;;;14.35;49.88;101767.77;1703124;84;21155;-78
2022/04/29 09:01:13;;;;;;;6.28;2.55;;;;;;;14.31;50.06;101763.23;1703995;83;21063;-77
2022/04/29 09:03:44;;;;;;;4.75;2.58;;;;;;;14.29;50.61;101761.67;1693952;83;21102;-81
2022/04/29 09:06:12;;;;;;;6.28;3.37;;;;;;;14.29;50.24;101769.53;1687387;84;21094;-78
2022/04/29 09:08:45;;;;;;;8.78;5.78;;;;;;;14.30;49.77;101773.83;1703746;83;21090;-78
2022/04/29 09:11:26;;;;;;;3.85;3.20;;;;;;;14.32;48.92;101766.67;1690030;84;21120;-78
2022/04/29 09:13:54;;;;;;;4.42;2.60;;;;;;;14.34;49.53;101761.68;1704196;83;21045;-80
2022/04/29 09:16:24;;;;;;;5.77;2.67;;;;;;;14.40;48.40;101753.84;1721424;82;21600;-77
2022/04/29 09:18:54;;;;;;;5.22;2.65;;;;;;;14.45;51.34;101752.20;1681149;83;21123;-78
2022/04/29 09:21:27;;;;;;;7.25;3.20;;;;;;;14.55;51.23;101749.73;1696897;82;21341;-77
2022/04/29 09:23:57;;;;;;;3.70;2.42;;;;;;;14.62;51.03;101756.22;1695617;83;21168;-77
2022/04/29 09:26:43;;;;;;;5.33;2.47;;;;;;;14.73;50.79;101755.45;1704864;82;21072;-77
2022/04/29 09:29:23;;;;;;;8.90;2.98;;;;;;;14.81;50.68;101755.70;1674795;82;21152;-77
2022/04/29 09:32:03;;;;;;;5.67;2.42;;;;;;;14.85;52.55;101745.33;1704405;82;21075;-78
2022/04/29 09:34:58;;;;;;;4.42;2.62;;;;;;;14.88;48.11;101745.11;1709904;82;21690;-77
2022/04/29 09:37:28;;;;;;;5.15;2.70;;;;;;;14.88;49.22;101744.26;1707182;82;21993;-77
2022/04/29 09:40:06;;;;;;;4.85;2.60;;;;;;;14.90;48.78;101747.61;1677846;84;21003;-78
2022/04/29 09:42:41;;;;;;;7.37;2.77;;;;;;;14.95;48.13;101752.02;1678489;83;21728;-78
2022/04/29 09:45:24;;;;;;;4.00;2.35;;;;;;;15.01;49.66;101750.27;1706086;83;21098;-78
2022/04/29 09:47:58;;;;;;;3.83;2.40;;;;;;;15.06;47.65;101752.54;1703279;82;21071;-80
2022/04/29 09:50:50;;;;;;;6.55;2.95;;;;;;;15.08;49.30;101751.47;1699981;82;21835;-78
2022/04/29 09:53:23;;;;;;;;;;;;;;;15.08;49.29;101758.48;1697135;82;21065;-76
2022/04/29 09:56:10;;;;;;;4.03;3.15;;;;;;;15.02;50.13;101749.78;1687673;83;20175;-78
2022/04/29 09:58:38;;;;;;;4.30;2.83;;;;;;;14.96;49.20;101747.14;1713819;82;21539;-77
2022/04/29 10:01:06;;;;;;;5.78;3.22;;;;;;;14.94;51.09;101745.13;1700507;82;21069;-78
2022/04/29 10:03:37;;;;;;;7.00;3.15;;;;;;;14.93;51.07;101740.83;1668310;83;21134;-78
2022/04/29 10:06:10;;;;;;;8.15;3.90;;;;;;;14.93;51.30;101740.34;1696211;83;21125;-78
2022/04/29 10:08:41;;;;;;;6.83;4.30;;;;;;;14.95;49.82;101741.53;1705019;82;21089;-79
2022/04/29 10:11:08;;;;;;;4.50;3.67;;;;;;;14.95;49.97;101742.37;1675694;82;21026;-80
2022/04/29 10:13:39;;;;;;;8.85;4.97;;;;;;;14.98;52.07;101737.38;1694009;83;20972;-78
2022/04/29 10:16:18;;;;;;;6.20;3.70;;;;;;;15.01;51.83;101738.92;1703355;83;21280;-76
2022/04/29 10:21:58;;;;;;;4.85;3.75;;;;;;;15.06;53.66;101747.30;1672797;83;21106;-77
2022/04/29 10:24:26;;;;;;;3.85;3.42;;;;;;;15.03;50.94;101756.20;1710506;82;21051;-78
2022/04/29 10:26:54;;;;;;;7.40;4.85;;;;;;;14.98;50.73;101746.55;1691283;82;21165;-81
2022/04/29 10:29:23;;;;;;;8.68;4.75;;;;;;;14.96;50.57;101751.92;1701729;82;21085;-78
2022/04/29 10:32:09;;;;;;;6.87;3.83;;;;;;;14.95;49.32;101756.80;1699030;82;21008;-78
2022/04/29 10:34:40;;;;;;;8.05;4.55;;;;;;;14.98;49.07;101757.05;1679633;83;21084;-80
2022/04/29 10:37:14;;;;;;;8.25;3.85;;;;;;;15.04;49.66;101754.44;1703774;83;21026;-85
2022/04/29 10:39:46;;;;;;;6.78;3.65;;;;;;;15.06;48.44;101757.30;1683224;83;21031;-76
2022/04/29 10:42:15;;;;;;;6.10;3.47;;;;;;;15.06;47.71;101747.30;1691553;83;21271;-77
2022/04/29 10:45:03;;;;;;;4.87;3.52;;;;;;;14.99;48.49;101745.11;1672330;83;21016;-77
2022/04/29 10:47:38;;;;;;;4.17;3.17;;;;;;;14.97;49.68;101750.98;1707998;82;21038;-76
2022/04/29 10:50:36;;;;;;;5.22;3.95;;;;;;;14.99;49.29;101749.54;1708753;83;21070;-78
2022/04/29 10:53:25;;;;;;;5.30;4.08;;;;;;;14.98;48.13;101753.11;1664931;83;20961;-79
2022/04/29 10:56:19;;;;;;;5.92;4.08;;;;;;;14.94;48.74;101755.13;1705484;83;21293;-76
2022/04/29 10:58:50;;;;;;;7.58;4.22;;;;;;;14.87;49.73;101761.80;1705450;83;21134;-78
2022/04/29 11:01:27;;;;;;;6.97;4.40;;;;;;;14.80;51.45;101760.09;1686422;83;21046;-85
2022/04/29 11:03:54;;;;;;;7.60;4.00;;;;;;;14.75;49.97;101754.38;1697683;82;21064;-77
2022/04/29 11:06:38;;;;;;;5.67;3.65;;;;;;;14.68;50.46;101750.55;1699782;83;21012;-78
2022/04/29 11:09:30;;;;;;;5.62;4.80;;;;;;;14.63;50.91;101752.63;1661385;85;21023;-78
2022/04/29 11:12:00;;;;;;;8.00;4.40;;;;;;;14.59;51.36;101746.77;1697041;83;20978;-78
2022/04/29 11:15:09;;;;;;;7.45;4.12;;;;;;;14.55;52.92;101744.48;1676495;83;21986;-78
2022/04/29 11:17:41;;;;;;;8.53;4.30;;;;;;;14.51;52.40;101744.73;1651469;83;21686;-82
2022/04/29 11:20:18;;;;;;;7.67;4.67;;;;;;;14.49;52.59;101739.25;1711289;82;21060;-82
2022/04/29 11:25:52;;;;;;;7.50;4.60;;;;;;;14.53;53.92;101739.86;1650583;86;21319;-83
2022/04/29 11:28:30;;;;;;;5.47;4.65;;;;;;;14.53;54.28;101737.23;1637035;85;21090;-77
2022/04/29 11:31:15;;;;;;;10.23;5.00;;;;;;;14.54;54.04;101733.67;1644933;85;21093;-77
2022/04/29 11:33:43;;;;;;;4.75;4.12;;;;;;;14.58;55.03;101732.48;1660708;86;20970;-80
2022/04/29 11:36:12;;;;;;;6.03;4.20;;;;;;;14.62;55.42;101733.94;1660687;85;21880;-76
2022/04/29 11:38:48;;;;;;;8.03;5.28;;;;;;;14.65;55.18;101729.76;1672808;84;21038;-76
2022/04/29 11:41:21;;;;;;;9.53;5.67;;;;;;;14.68;55.75;101724.33;1665069;85;21058;-75
2022/04/29 11:43:52;;;;;;;8.70;4.72;;;;;;;14.69;56.49;101726.00;1659256;84;21038;-75
2022/04/29 11:46:21;;;;;;;9.23;5.03;;;;;;;14.74;58.58;101713.38;1657221;85;21022;-76
2022/04/29 11:48:58;;;;;;;8.38;4.60;;;;;;;14.80;52.90;101711.59;1633886;86;21924;-78
2022/04/29 11:51:28;;;;;;;8.38;4.67;;;;;;;14.89;51.87;101711.84;1652431;85;21079;-76
2022/04/29 11:54:05;;;;;;;6.67;4.10;;;;;;;14.97;50.26;101709.02;1645713;85;21093;-77
2022/04/29 11:56:36;;;;;;;6.12;4.35;;;;;;;15.03;51.36;101706.38;1674148;85;21010;-77
2022/04/29 11:59:09;;;;;;;5.67;4.05;;;;;;;15.04;51.61;101704.11;1647446;84;21078;-82
2022/04/29 12:01:39;;;;;;;5.67;4.55;;;;;;;15.06;50.75;101702.22;1707271;82;21205;-77
2022/04/29 12:04:07;;;;;;;8.68;4.30;;;;;;;15.04;49.99;101697.55;1706727;83;21188;-76
2022/04/29 12:06:35;;;;;;;5.87;4.40;;;;;;;15.01;53.40;101695.19;1688639;84;21137;-76
2022/04/29 12:09:03;;;;;;;5.87;4.58;;;;;;;14.97;50.61;101692.42;1704378;83;21041;-76
2022/04/29 12:11:31;;;;;;;4.55;3.95;;;;;;;14.95;50.01;101683.84;1703991;83;21117;-77